Date,TemperatureHighF,TemperatureAvgF,TemperatureLowF,DewpointHighF,DewpointAvgF,DewpointLowF,HumidityHigh,HumidityAvg,HumidityLow,PressureMaxIn,PressureMinIn,WindSpeedMaxMPH,WindSpeedAvgMPH,GustSpeedMaxMPH,PrecipitationSumIn
2013-7-1,95,83,65,69,65,61,88,56,38,0.00,40.00,5,3,13,0.00
2013-7-2,97,81,67,71,60,45,81,52,25,0.00,40.00,6,2,14,0.00
2013-7-3,86,77,64,53,44,34,67,32,19,0.00,40.00,7,4,17,0.00
2013-7-4,77,69,61,50,46,36,61,43,30,0.00,40.00,11,6,24,0.00
2013-7-5,70,64,57,50,49,47,69,58,49,0.00,40.00,10,7,23,0.00
2013-7-6,81,65,50,54,51,45,83,62,34,0.00,40.00,6,3,18,0.00
2013-7-7,84,68,55,61,54,50,85,62,32,0.00,40.00,7,3,16,0.00
2013-7-8,85,69,60,53,51,46,70,54,27,0.00,40.00,5,3,16,0.00
2013-7-9,90,72,51,60,53,47,86,54,33,0.00,40.00,4,2,9,0.00
2013-7-10,85,70,55,60,46,-100,84,48,26,0.00,40.00,7,2,23,0.00
2013-7-11,77,66,52,48,42,33,71,43,19,0.00,40.00,8,4,17,0.00
2013-7-12,74,62,49,49,44,38,80,53,32,0.00,40.00,6,2,16,0.00
2013-7-13,83,64,46,52,44,38,77,52,23,0.00,40.00,5,2,9,0.00
2013-7-14,89,68,45,52,45,40,87,49,21,0.00,40.00,5,2,13,0.00
2013-7-15,87,68,48,52,46,38,76,48,27,0.00,40.00,4,2,11,0.00
2013-7-16,80,66,52,63,52,46,81,62,33,0.00,40.00,5,2,12,0.00
2013-7-17,85,73,61,60,50,41,81,48,23,0.00,40.00,7,3,16,0.00
2013-7-18,91,73,55,54,47,40,66,42,24,0.00,40.00,6,3,16,0.00
2013-7-19,93,71,46,58,47,39,76,46,19,0.00,40.00,6,2,17,0.00
2013-7-20,91,72,57,60,48,-100,60,47,21,0.00,40.00,7,4,17,0.00
2013-7-21,88,72,50,53,47,37,65,42,27,0.00,40.00,7,4,21,0.00
2013-7-22,87,84,76,47,45,41,29,25,23,0.00,40.00,6,5,20,0.00
2013-7-23,83,64,48,58,46,38,71,52,41,0.00,40.00,2,1,6,0.00
2013-7-26,92,80,73,51,48,41,43,33,17,0.00,40.00,7,4,24,0.00
2013-7-27,82,74,66,44,41,37,41,31,23,0.00,40.00,8,5,19,0.00
2013-7-28,76,70,64,49,47,44,57,44,33,0.00,40.00,8,5,22,0.00
2013-7-29,83,67,46,57,48,43,93,55,26,0.00,40.00,6,3,13,0.00
2013-7-30,86,74,58,54,49,44,68,44,23,0.00,40.00,7,4,16,0.00
2013-7-31,84,70,59,61,54,46,69,56,43,0.00,40.00,6,2,18,0.00